»·PEaware :: N220BA KLAS-KSBA

N220BA :: KLAS-KSBA

FLIGHT INFORMATION

Flight Status: Arrived
Operator: Privately registered:
United States
More flights under this callsign
Pilot: Fernando A. (32251)
Aircraft: Cessna 525C Citation CJ4
(C25C)
More flights by this aircraft type
Origin: KLAS McCarran Intl
United States
Destination: KSBA Santa Barbara Mun
United States
More flights between these airports :: More routes between these airports
Route: BOACH8 HEC PITBL1
File this flight plan on PilotEdge
Remarks:
Altitude:
(Current/Filed)
35,000ft
Speed:
(Current/Filed)
443kts
Departed: 10-Jan-21 12:59 PM
Arrived: 10-Jan-21 01:46 PM
Distance/Time
Traveled:
250nm/0:47
Distance/Time
To Go:
Arrived

Flight Plot

Page will automatically refresh every two minutes.

Flight plan parsing failed; only flown route is shown


Map Options




Map Legend


Flown Route
Filed Route
Departure Airport
Arrival Airport
Navaid (VOR, NDB)
Fix

Horizontal Profiles

Position Reports

Time Latitude Longitude Heading Altitude Ground
Speed
10-Jan-21 12:41 36.098511 -115.160199 127 2098ft 0kts
10-Jan-21 12:42 36.098511 -115.160199 127 2098ft 0kts
10-Jan-21 12:43 36.098511 -115.160199 127 2098ft 0kts
10-Jan-21 12:44 36.098511 -115.160199 127 2098ft 0kts
10-Jan-21 12:45 36.098511 -115.160199 127 2098ft 0kts
10-Jan-21 12:46 36.098511 -115.160199 127 2098ft 0kts
10-Jan-21 12:47 36.098511 -115.160199 127 2098ft 0kts
10-Jan-21 12:48 36.098511 -115.160199 127 2098ft 0kts
10-Jan-21 12:49 36.098511 -115.160199 127 2098ft 0kts
10-Jan-21 12:50 36.098511 -115.160199 127 2098ft 0kts
10-Jan-21 12:51 36.098511 -115.160199 127 2098ft 0kts
10-Jan-21 12:52 36.098511 -115.160199 127 2098ft 0kts
10-Jan-21 12:53 36.098511 -115.160199 127 2098ft 0kts
10-Jan-21 12:54 36.098511 -115.160199 127 2098ft 0kts
10-Jan-21 12:55 36.099078 -115.159175 26 2096ft 14kts
10-Jan-21 12:56 36.099851 -115.157525 88 2091ft 0kts
10-Jan-21 12:57 36.098987 -115.156863 206 2093ft 10kts
10-Jan-21 12:58 36.066049 -115.176633 206 4164ft 204kts
10-Jan-21 12:59 36.001471 -115.203651 210 6732ft 275kts
10-Jan-21 13:00 35.960488 -115.279599 226 7012ft 264kts
10-Jan-21 13:01 35.891667 -115.312488 185 9921ft 278kts
10-Jan-21 13:02 35.811770 -115.310311 172 14379ft 300kts
10-Jan-21 13:03 35.725603 -115.299842 176 18934ft 323kts
10-Jan-21 13:04 35.644943 -115.336504 231 22788ft 329kts
10-Jan-21 13:05 35.582847 -115.423205 234 26173ft 345kts
10-Jan-21 13:06 35.516424 -115.511642 234 29031ft 359kts
10-Jan-21 13:07 35.447498 -115.604006 235 31467ft 374kts
10-Jan-21 13:08 35.375631 -115.699811 235 33606ft 386kts
10-Jan-21 13:09 35.302221 -115.797416 235 35236ft 406kts
10-Jan-21 13:10 35.220517 -115.905756 235 35371ft 450kts
10-Jan-21 13:11 35.134924 -116.018983 236 35344ft 456kts
10-Jan-21 13:12 35.048063 -116.133815 236 35336ft 462kts
10-Jan-21 13:13 34.960529 -116.248577 236 35341ft 461kts
10-Jan-21 13:14 34.873173 -116.362666 237 35391ft 459kts
10-Jan-21 13:15 34.794518 -116.481508 258 35357ft 430kts
10-Jan-21 13:16 34.774413 -116.620656 270 35376ft 420kts
10-Jan-21 13:17 34.752921 -116.759106 270 35325ft 409kts
10-Jan-21 13:18 34.732896 -116.896621 268 35364ft 429kts
10-Jan-21 13:19 34.711378 -117.038295 269 35371ft 420kts
10-Jan-21 13:20 34.690138 -117.178576 268 35345ft 423kts
10-Jan-21 13:21 34.669037 -117.316323 269 35338ft 422kts
10-Jan-21 13:22 34.646940 -117.457297 268 35310ft 420kts
10-Jan-21 13:23 34.625625 -117.596231 268 35314ft 422kts
10-Jan-21 13:24 34.603269 -117.737040 267 35321ft 423kts
10-Jan-21 13:25 34.581216 -117.877602 267 35312ft 425kts
10-Jan-21 13:26 34.558624 -118.018845 267 35323ft 428kts
10-Jan-21 13:27 34.535861 -118.160660 266 33997ft 424kts
10-Jan-21 13:28 34.512844 -118.301985 265 31748ft 427kts
10-Jan-21 13:29 34.489401 -118.445823 264 29528ft 434kts
10-Jan-21 13:30 34.466437 -118.586300 264 27243ft 403kts
10-Jan-21 13:31 34.444719 -118.718590 264 24875ft 403kts
10-Jan-21 13:32 34.422780 -118.847412 264 22297ft 371kts
10-Jan-21 13:33 34.402445 -118.966013 264 19671ft 357kts
10-Jan-21 13:34 34.381822 -119.084738 263 17003ft 346kts
10-Jan-21 13:35 34.363376 -119.192970 263 14565ft 316kts
10-Jan-21 13:36 34.346543 -119.293548 263 12368ft 297kts
10-Jan-21 13:37 34.330422 -119.389829 262 10200ft 283kts
10-Jan-21 13:38 34.315327 -119.481308 262 8117ft 273kts
10-Jan-21 13:39 34.302037 -119.571266 262 6089ft 266kts
10-Jan-21 13:40 34.326819 -119.646816 312 4306ft 246kts
10-Jan-21 13:41 34.375716 -119.696078 329 3223ft 217kts
10-Jan-21 13:42 34.419623 -119.728123 313 2184ft 152kts
10-Jan-21 13:43 34.429373 -119.773613 267 1070ft 133kts
10-Jan-21 13:44 34.428320 -119.816529 266 335ft 121kts
10-Jan-21 13:45 34.427553 -119.846105 222 10ft 13kts
10-Jan-21 13:46 34.426558 -119.845402 88 11ft 0kts
10-Jan-21 13:47 34.426608 -119.843019 89 11ft 19kts
10-Jan-21 13:48 34.426160 -119.838188 166 12ft 13kts
10-Jan-21 13:49 34.422697 -119.836980 84 12ft 8kts
10-Jan-21 13:50 34.422784 -119.835941 166 11ft 0kts

Navigation Log

Ident Type
Flight plan parsing failed, navigation log unavailable